Comandante Giribone, Argentina
Current Conditions -  °F | °C
As of 9:00 PM on Tuesday 25 Nov 2014 (Local Time) from SAEZ Reporting Station
Clear Clear  
Wind Chill: 64°   Ceiling: Unl
Heat Index: 64°   Visibility: 6mi
Dew Point: 48°   Wind: 5mph
Humidity: 56%   Direction: 80°E
Pressure: 29.94"   Gusts: NA
Location:  35.62°S, 57.73°W
Report Text: SAEZ 260000Z 08004KT CAVOK 18/09 Q1014
Loading
Personal Weather Stations






























Interactive Weather Map New forecast layout! Learn more

10-Day Weather Forecast

Advertisements
Track Severe Weather on mobile